sensor_id;sensor_type;location;lat;lon;timestamp;P1;durP1;ratioP1;P2;durP2;ratioP2
18265;SDS011;9259;48.194;16.322;2023-12-28T00:01:09;29.80;;;13.80;;
18265;SDS011;9259;48.194;16.322;2023-12-28T00:03:37;28.47;;;12.40;;
18265;SDS011;9259;48.194;16.322;2023-12-28T00:06:06;26.70;;;12.70;;
18265;SDS011;9259;48.194;16.322;2023-12-28T00:08:35;28.27;;;12.90;;
18265;SDS011;9259;48.194;16.322;2023-12-28T00:11:05;26.20;;;13.47;;
18265;SDS011;9259;48.194;16.322;2023-12-28T00:13:33;29.57;;;13.57;;
18265;SDS011;9259;48.194;16.322;2023-12-28T00:16:00;26.80;;;13.03;;
18265;SDS011;9259;48.194;16.322;2023-12-28T00:18:27;29.13;;;13.27;;
18265;SDS011;9259;48.194;16.322;2023-12-28T00:20:55;29.33;;;12.97;;
18265;SDS011;9259;48.194;16.322;2023-12-28T00:23:23;28.67;;;13.43;;
18265;SDS011;9259;48.194;16.322;2023-12-28T00:25:51;29.77;;;13.23;;
18265;SDS011;9259;48.194;16.322;2023-12-28T00:28:20;28.87;;;12.47;;
18265;SDS011;9259;48.194;16.322;2023-12-28T00:30:48;29.50;;;12.13;;
18265;SDS011;9259;48.194;16.322;2023-12-28T00:33:16;32.13;;;14.17;;
18265;SDS011;9259;48.194;16.322;2023-12-28T00:35:43;28.33;;;12.47;;
18265;SDS011;9259;48.194;16.322;2023-12-28T00:38:11;29.70;;;13.03;;
18265;SDS011;9259;48.194;16.322;2023-12-28T00:40:39;29.63;;;12.90;;
18265;SDS011;9259;48.194;16.322;2023-12-28T00:43:07;27.90;;;12.53;;
18265;SDS011;9259;48.194;16.322;2023-12-28T00:45:36;30.50;;;13.57;;
18265;SDS011;9259;48.194;16.322;2023-12-28T00:48:04;33.10;;;13.93;;
18265;SDS011;9259;48.194;16.322;2023-12-28T00:50:33;25.93;;;11.83;;
18265;SDS011;9259;48.194;16.322;2023-12-28T00:53:01;32.90;;;12.83;;
18265;SDS011;9259;48.194;16.322;2023-12-28T00:55:29;30.20;;;13.60;;
18265;SDS011;9259;48.194;16.322;2023-12-28T00:57:57;29.10;;;13.63;;
18265;SDS011;9259;48.194;16.322;2023-12-28T01:00:24;34.63;;;14.23;;
18265;SDS011;9259;48.194;16.322;2023-12-28T01:02:54;30.83;;;13.60;;
18265;SDS011;9259;48.194;16.322;2023-12-28T01:05:21;29.33;;;13.90;;
18265;SDS011;9259;48.194;16.322;2023-12-28T01:07:51;27.77;;;13.10;;
18265;SDS011;9259;48.194;16.322;2023-12-28T01:10:19;27.80;;;12.83;;
18265;SDS011;9259;48.194;16.322;2023-12-28T01:12:48;27.67;;;12.87;;
18265;SDS011;9259;48.194;16.322;2023-12-28T01:15:16;28.83;;;13.20;;
18265;SDS011;9259;48.194;16.322;2023-12-28T01:17:46;31.20;;;12.43;;
18265;SDS011;9259;48.194;16.322;2023-12-28T01:20:15;25.00;;;11.77;;
18265;SDS011;9259;48.194;16.322;2023-12-28T01:22:43;31.03;;;12.73;;
18265;SDS011;9259;48.194;16.322;2023-12-28T01:25:11;26.90;;;12.77;;
18265;SDS011;9259;48.194;16.322;2023-12-28T01:27:39;26.50;;;12.40;;
18265;SDS011;9259;48.194;16.322;2023-12-28T01:30:07;26.67;;;12.63;;
18265;SDS011;9259;48.194;16.322;2023-12-28T01:32:35;27.93;;;12.73;;
18265;SDS011;9259;48.194;16.322;2023-12-28T01:35:03;32.10;;;12.77;;
18265;SDS011;9259;48.194;16.322;2023-12-28T01:37:34;27.73;;;13.17;;
18265;SDS011;9259;48.194;16.322;2023-12-28T01:40:02;25.80;;;12.77;;
18265;SDS011;9259;48.194;16.322;2023-12-28T01:42:31;28.93;;;13.13;;
18265;SDS011;9259;48.194;16.322;2023-12-28T01:44:58;27.03;;;12.13;;
18265;SDS011;9259;48.194;16.322;2023-12-28T01:47:26;26.37;;;12.10;;
18265;SDS011;9259;48.194;16.322;2023-12-28T01:49:56;27.77;;;12.60;;
18265;SDS011;9259;48.194;16.322;2023-12-28T01:52:24;28.53;;;12.37;;
18265;SDS011;9259;48.194;16.322;2023-12-28T01:54:53;27.60;;;13.23;;
18265;SDS011;9259;48.194;16.322;2023-12-28T01:57:22;27.17;;;12.63;;
18265;SDS011;9259;48.194;16.322;2023-12-28T01:59:50;26.33;;;12.23;;
18265;SDS011;9259;48.194;16.322;2023-12-28T02:02:18;27.83;;;11.50;;
18265;SDS011;9259;48.194;16.322;2023-12-28T02:04:46;29.07;;;12.23;;
18265;SDS011;9259;48.194;16.322;2023-12-28T02:07:14;24.10;;;11.07;;
18265;SDS011;9259;48.194;16.322;2023-12-28T02:09:42;25.93;;;11.90;;
18265;SDS011;9259;48.194;16.322;2023-12-28T02:12:12;24.10;;;11.23;;
18265;SDS011;9259;48.194;16.322;2023-12-28T02:14:39;30.20;;;11.90;;
18265;SDS011;9259;48.194;16.322;2023-12-28T02:17:10;26.37;;;12.50;;
18265;SDS011;9259;48.194;16.322;2023-12-28T02:19:47;32.83;;;13.97;;
18265;SDS011;9259;48.194;16.322;2023-12-28T02:22:18;39.70;;;16.03;;
18265;SDS011;9259;48.194;16.322;2023-12-28T02:25:03;36.33;;;14.97;;
18265;SDS011;9259;48.194;16.322;2023-12-28T02:27:33;37.67;;;16.07;;
18265;SDS011;9259;48.194;16.322;2023-12-28T02:30:04;40.40;;;16.07;;
18265;SDS011;9259;48.194;16.322;2023-12-28T02:32:36;41.20;;;17.27;;
18265;SDS011;9259;48.194;16.322;2023-12-28T02:35:17;34.07;;;15.87;;
18265;SDS011;9259;48.194;16.322;2023-12-28T02:37:51;35.53;;;15.93;;
18265;SDS011;9259;48.194;16.322;2023-12-28T02:40:23;38.37;;;16.67;;
18265;SDS011;9259;48.194;16.322;2023-12-28T02:42:53;36.60;;;16.77;;
18265;SDS011;9259;48.194;16.322;2023-12-28T02:45:21;31.37;;;15.63;;
18265;SDS011;9259;48.194;16.322;2023-12-28T02:47:49;36.23;;;16.83;;
18265;SDS011;9259;48.194;16.322;2023-12-28T02:50:17;46.93;;;19.23;;
18265;SDS011;9259;48.194;16.322;2023-12-28T02:52:45;44.13;;;17.67;;
18265;SDS011;9259;48.194;16.322;2023-12-28T02:55:13;43.30;;;18.77;;
18265;SDS011;9259;48.194;16.322;2023-12-28T02:57:43;49.73;;;19.00;;
18265;SDS011;9259;48.194;16.322;2023-12-28T03:00:11;46.60;;;19.47;;
18265;SDS011;9259;48.194;16.322;2023-12-28T03:02:40;46.37;;;18.43;;
18265;SDS011;9259;48.194;16.322;2023-12-28T03:05:08;52.63;;;20.53;;
18265;SDS011;9259;48.194;16.322;2023-12-28T03:07:36;53.17;;;21.10;;
18265;SDS011;9259;48.194;16.322;2023-12-28T03:10:06;75.00;;;22.70;;
18265;SDS011;9259;48.194;16.322;2023-12-28T03:12:35;57.20;;;21.23;;
18265;SDS011;9259;48.194;16.322;2023-12-28T03:15:05;48.80;;;20.23;;
18265;SDS011;9259;48.194;16.322;2023-12-28T03:17:33;50.13;;;20.07;;
18265;SDS011;9259;48.194;16.322;2023-12-28T03:20:02;46.63;;;18.93;;
18265;SDS011;9259;48.194;16.322;2023-12-28T03:22:31;50.53;;;20.57;;
18265;SDS011;9259;48.194;16.322;2023-12-28T03:24:59;53.40;;;21.90;;
18265;SDS011;9259;48.194;16.322;2023-12-28T03:27:28;52.47;;;21.50;;
18265;SDS011;9259;48.194;16.322;2023-12-28T03:29:55;57.10;;;22.50;;
18265;SDS011;9259;48.194;16.322;2023-12-28T03:32:25;57.53;;;23.07;;
18265;SDS011;9259;48.194;16.322;2023-12-28T03:34:53;54.03;;;21.50;;
18265;SDS011;9259;48.194;16.322;2023-12-28T03:37:20;65.67;;;22.40;;
18265;SDS011;9259;48.194;16.322;2023-12-28T03:39:48;58.13;;;22.53;;
18265;SDS011;9259;48.194;16.322;2023-12-28T03:42:16;63.97;;;22.23;;
18265;SDS011;9259;48.194;16.322;2023-12-28T03:44:44;62.00;;;22.73;;
18265;SDS011;9259;48.194;16.322;2023-12-28T03:47:12;57.87;;;22.43;;
18265;SDS011;9259;48.194;16.322;2023-12-28T03:49:41;56.83;;;21.63;;
18265;SDS011;9259;48.194;16.322;2023-12-28T03:52:09;62.83;;;22.97;;
18265;SDS011;9259;48.194;16.322;2023-12-28T03:54:36;62.87;;;22.80;;
18265;SDS011;9259;48.194;16.322;2023-12-28T03:57:04;77.97;;;22.60;;
18265;SDS011;9259;48.194;16.322;2023-12-28T03:59:32;66.13;;;23.07;;
18265;SDS011;9259;48.194;16.322;2023-12-28T04:02:00;64.67;;;24.03;;
18265;SDS011;9259;48.194;16.322;2023-12-28T04:04:28;79.07;;;22.40;;
18265;SDS011;9259;48.194;16.322;2023-12-28T04:06:58;61.97;;;22.90;;
18265;SDS011;9259;48.194;16.322;2023-12-28T04:09:25;81.03;;;25.10;;
18265;SDS011;9259;48.194;16.322;2023-12-28T04:11:53;76.67;;;23.90;;
18265;SDS011;9259;48.194;16.322;2023-12-28T04:14:21;91.23;;;24.17;;
18265;SDS011;9259;48.194;16.322;2023-12-28T04:16:49;69.10;;;22.17;;
18265;SDS011;9259;48.194;16.322;2023-12-28T04:19:17;72.87;;;24.93;;
18265;SDS011;9259;48.194;16.322;2023-12-28T04:21:44;62.73;;;22.53;;
18265;SDS011;9259;48.194;16.322;2023-12-28T04:24:14;88.47;;;23.17;;
18265;SDS011;9259;48.194;16.322;2023-12-28T04:26:42;101.20;;;23.27;;
18265;SDS011;9259;48.194;16.322;2023-12-28T04:29:09;63.77;;;23.70;;
18265;SDS011;9259;48.194;16.322;2023-12-28T04:31:39;62.43;;;22.17;;
18265;SDS011;9259;48.194;16.322;2023-12-28T04:34:08;65.10;;;24.53;;
18265;SDS011;9259;48.194;16.322;2023-12-28T04:36:39;74.07;;;23.23;;
18265;SDS011;9259;48.194;16.322;2023-12-28T04:39:08;66.60;;;24.20;;
18265;SDS011;9259;48.194;16.322;2023-12-28T04:41:37;62.97;;;22.53;;
18265;SDS011;9259;48.194;16.322;2023-12-28T04:44:05;66.50;;;23.83;;
18265;SDS011;9259;48.194;16.322;2023-12-28T04:46:37;78.10;;;24.27;;
18265;SDS011;9259;48.194;16.322;2023-12-28T04:49:06;75.47;;;22.87;;
18265;SDS011;9259;48.194;16.322;2023-12-28T04:51:33;73.27;;;22.73;;
18265;SDS011;9259;48.194;16.322;2023-12-28T04:54:01;68.07;;;23.40;;
18265;SDS011;9259;48.194;16.322;2023-12-28T04:56:29;59.03;;;23.13;;
18265;SDS011;9259;48.194;16.322;2023-12-28T04:58:58;69.10;;;23.33;;
18265;SDS011;9259;48.194;16.322;2023-12-28T05:01:26;63.57;;;23.03;;
18265;SDS011;9259;48.194;16.322;2023-12-28T05:03:57;60.57;;;22.03;;
18265;SDS011;9259;48.194;16.322;2023-12-28T05:06:27;60.93;;;22.57;;
18265;SDS011;9259;48.194;16.322;2023-12-28T05:08:55;58.53;;;22.93;;
18265;SDS011;9259;48.194;16.322;2023-12-28T05:11:23;55.13;;;21.80;;
18265;SDS011;9259;48.194;16.322;2023-12-28T05:13:51;56.53;;;21.43;;
18265;SDS011;9259;48.194;16.322;2023-12-28T05:16:20;52.73;;;20.80;;
18265;SDS011;9259;48.194;16.322;2023-12-28T05:18:48;54.80;;;20.30;;
18265;SDS011;9259;48.194;16.322;2023-12-28T05:21:16;60.33;;;22.33;;
18265;SDS011;9259;48.194;16.322;2023-12-28T05:23:44;56.03;;;21.77;;
18265;SDS011;9259;48.194;16.322;2023-12-28T05:26:12;60.63;;;22.40;;
18265;SDS011;9259;48.194;16.322;2023-12-28T05:28:40;62.37;;;22.90;;
18265;SDS011;9259;48.194;16.322;2023-12-28T05:31:07;61.20;;;22.10;;
18265;SDS011;9259;48.194;16.322;2023-12-28T05:33:37;63.60;;;23.57;;
18265;SDS011;9259;48.194;16.322;2023-12-28T05:36:05;70.57;;;26.27;;
18265;SDS011;9259;48.194;16.322;2023-12-28T05:38:33;59.90;;;22.97;;
18265;SDS011;9259;48.194;16.322;2023-12-28T05:41:01;67.87;;;22.37;;
18265;SDS011;9259;48.194;16.322;2023-12-28T05:43:29;60.13;;;21.70;;
18265;SDS011;9259;48.194;16.322;2023-12-28T05:45:57;56.20;;;20.97;;
18265;SDS011;9259;48.194;16.322;2023-12-28T05:48:25;49.07;;;19.63;;
18265;SDS011;9259;48.194;16.322;2023-12-28T05:50:54;58.47;;;22.20;;
18265;SDS011;9259;48.194;16.322;2023-12-28T05:53:22;75.97;;;25.47;;
18265;SDS011;9259;48.194;16.322;2023-12-28T05:55:49;74.37;;;24.67;;
18265;SDS011;9259;48.194;16.322;2023-12-28T05:58:17;71.70;;;24.67;;
18265;SDS011;9259;48.194;16.322;2023-12-28T06:00:45;69.17;;;24.10;;
18265;SDS011;9259;48.194;16.322;2023-12-28T06:03:13;86.50;;;26.70;;
18265;SDS011;9259;48.194;16.322;2023-12-28T06:05:41;71.27;;;25.00;;
18265;SDS011;9259;48.194;16.322;2023-12-28T06:08:11;67.83;;;24.40;;
18265;SDS011;9259;48.194;16.322;2023-12-28T06:10:39;68.80;;;24.23;;
18265;SDS011;9259;48.194;16.322;2023-12-28T06:13:06;59.40;;;22.13;;
18265;SDS011;9259;48.194;16.322;2023-12-28T06:15:34;59.87;;;22.83;;
18265;SDS011;9259;48.194;16.322;2023-12-28T06:18:02;63.67;;;22.00;;
18265;SDS011;9259;48.194;16.322;2023-12-28T06:20:31;53.40;;;20.23;;
18265;SDS011;9259;48.194;16.322;2023-12-28T06:22:59;48.40;;;19.30;;
18265;SDS011;9259;48.194;16.322;2023-12-28T06:25:28;52.40;;;20.33;;
18265;SDS011;9259;48.194;16.322;2023-12-28T06:27:56;55.73;;;21.10;;
18265;SDS011;9259;48.194;16.322;2023-12-28T06:30:24;59.47;;;20.90;;
18265;SDS011;9259;48.194;16.322;2023-12-28T06:32:51;62.50;;;21.43;;
18265;SDS011;9259;48.194;16.322;2023-12-28T06:35:19;61.80;;;22.37;;
18265;SDS011;9259;48.194;16.322;2023-12-28T06:37:47;54.77;;;20.97;;
18265;SDS011;9259;48.194;16.322;2023-12-28T06:40:15;56.77;;;20.43;;
18265;SDS011;9259;48.194;16.322;2023-12-28T06:42:44;54.33;;;20.60;;
18265;SDS011;9259;48.194;16.322;2023-12-28T06:45:12;55.43;;;20.77;;
18265;SDS011;9259;48.194;16.322;2023-12-28T06:47:40;57.57;;;19.17;;
18265;SDS011;9259;48.194;16.322;2023-12-28T06:50:08;61.97;;;21.40;;
18265;SDS011;9259;48.194;16.322;2023-12-28T06:52:36;56.97;;;21.13;;
18265;SDS011;9259;48.194;16.322;2023-12-28T06:55:04;57.50;;;20.80;;
18265;SDS011;9259;48.194;16.322;2023-12-28T06:57:32;55.63;;;21.37;;
18265;SDS011;9259;48.194;16.322;2023-12-28T07:00:01;54.73;;;21.30;;
18265;SDS011;9259;48.194;16.322;2023-12-28T07:02:30;62.63;;;22.93;;
18265;SDS011;9259;48.194;16.322;2023-12-28T07:04:58;64.07;;;22.37;;
18265;SDS011;9259;48.194;16.322;2023-12-28T07:07:25;75.77;;;25.50;;
18265;SDS011;9259;48.194;16.322;2023-12-28T07:09:53;61.37;;;22.10;;
18265;SDS011;9259;48.194;16.322;2023-12-28T07:12:21;63.83;;;22.10;;
18265;SDS011;9259;48.194;16.322;2023-12-28T07:14:49;52.80;;;20.60;;
18265;SDS011;9259;48.194;16.322;2023-12-28T07:17:19;60.87;;;20.67;;
18265;SDS011;9259;48.194;16.322;2023-12-28T07:19:46;58.37;;;20.53;;
18265;SDS011;9259;48.194;16.322;2023-12-28T07:22:14;56.10;;;19.93;;
18265;SDS011;9259;48.194;16.322;2023-12-28T07:24:42;62.70;;;21.87;;
18265;SDS011;9259;48.194;16.322;2023-12-28T07:27:10;57.63;;;22.13;;
18265;SDS011;9259;48.194;16.322;2023-12-28T07:29:38;69.73;;;20.43;;
18265;SDS011;9259;48.194;16.322;2023-12-28T07:32:06;64.37;;;21.30;;
18265;SDS011;9259;48.194;16.322;2023-12-28T07:34:36;54.60;;;21.10;;
18265;SDS011;9259;48.194;16.322;2023-12-28T07:37:04;51.67;;;19.90;;
18265;SDS011;9259;48.194;16.322;2023-12-28T07:39:32;58.73;;;19.47;;
18265;SDS011;9259;48.194;16.322;2023-12-28T07:42:00;62.53;;;21.43;;
18265;SDS011;9259;48.194;16.322;2023-12-28T07:44:28;62.90;;;21.43;;
18265;SDS011;9259;48.194;16.322;2023-12-28T07:46:56;57.80;;;21.13;;
18265;SDS011;9259;48.194;16.322;2023-12-28T07:49:23;63.80;;;20.77;;
18265;SDS011;9259;48.194;16.322;2023-12-28T07:51:53;60.60;;;21.33;;
18265;SDS011;9259;48.194;16.322;2023-12-28T07:54:21;73.70;;;22.27;;
18265;SDS011;9259;48.194;16.322;2023-12-28T07:56:48;86.43;;;23.53;;
18265;SDS011;9259;48.194;16.322;2023-12-28T07:59:16;62.23;;;23.17;;
18265;SDS011;9259;48.194;16.322;2023-12-28T08:01:44;71.13;;;23.80;;
18265;SDS011;9259;48.194;16.322;2023-12-28T08:04:12;72.40;;;23.73;;
18265;SDS011;9259;48.194;16.322;2023-12-28T08:06:40;66.60;;;23.00;;
18265;SDS011;9259;48.194;16.322;2023-12-28T08:09:09;77.87;;;23.90;;
18265;SDS011;9259;48.194;16.322;2023-12-28T08:11:37;65.40;;;22.20;;
18265;SDS011;9259;48.194;16.322;2023-12-28T08:14:05;81.70;;;23.70;;
18265;SDS011;9259;48.194;16.322;2023-12-28T08:16:33;73.83;;;23.90;;
18265;SDS011;9259;48.194;16.322;2023-12-28T08:19:01;67.40;;;24.17;;
18265;SDS011;9259;48.194;16.322;2023-12-28T08:21:29;76.00;;;22.50;;
18265;SDS011;9259;48.194;16.322;2023-12-28T08:23:57;72.00;;;22.97;;
18265;SDS011;9259;48.194;16.322;2023-12-28T08:26:26;81.50;;;22.77;;
18265;SDS011;9259;48.194;16.322;2023-12-28T08:28:53;81.57;;;24.57;;
18265;SDS011;9259;48.194;16.322;2023-12-28T08:31:21;66.13;;;21.13;;
18265;SDS011;9259;48.194;16.322;2023-12-28T08:33:49;75.10;;;23.40;;
18265;SDS011;9259;48.194;16.322;2023-12-28T08:36:17;62.90;;;20.50;;
18265;SDS011;9259;48.194;16.322;2023-12-28T08:38:45;67.20;;;21.87;;
18265;SDS011;9259;48.194;16.322;2023-12-28T08:41:19;65.50;;;20.77;;
18265;SDS011;9259;48.194;16.322;2023-12-28T08:43:51;64.60;;;20.33;;
18265;SDS011;9259;48.194;16.322;2023-12-28T08:46:19;61.60;;;20.50;;
18265;SDS011;9259;48.194;16.322;2023-12-28T08:48:48;53.53;;;20.37;;
18265;SDS011;9259;48.194;16.322;2023-12-28T08:51:16;63.97;;;20.63;;
18265;SDS011;9259;48.194;16.322;2023-12-28T08:53:44;60.93;;;20.63;;
18265;SDS011;9259;48.194;16.322;2023-12-28T08:56:13;59.77;;;20.13;;
18265;SDS011;9259;48.194;16.322;2023-12-28T08:58:43;63.90;;;20.00;;
18265;SDS011;9259;48.194;16.322;2023-12-28T09:01:16;68.43;;;20.73;;
18265;SDS011;9259;48.194;16.322;2023-12-28T09:03:47;55.63;;;19.23;;
18265;SDS011;9259;48.194;16.322;2023-12-28T09:06:16;81.93;;;27.30;;
18265;SDS011;9259;48.194;16.322;2023-12-28T09:08:44;109.33;;;38.93;;
18265;SDS011;9259;48.194;16.322;2023-12-28T09:11:16;52.97;;;19.73;;
18265;SDS011;9259;48.194;16.322;2023-12-28T09:13:44;63.00;;;21.60;;
18265;SDS011;9259;48.194;16.322;2023-12-28T09:16:13;125.93;;;42.23;;
18265;SDS011;9259;48.194;16.322;2023-12-28T09:18:43;55.17;;;20.00;;
18265;SDS011;9259;48.194;16.322;2023-12-28T09:21:11;62.00;;;20.27;;
18265;SDS011;9259;48.194;16.322;2023-12-28T09:23:39;62.07;;;20.53;;
18265;SDS011;9259;48.194;16.322;2023-12-28T09:26:07;66.13;;;19.70;;
18265;SDS011;9259;48.194;16.322;2023-12-28T09:28:35;52.83;;;18.00;;
18265;SDS011;9259;48.194;16.322;2023-12-28T09:31:03;53.47;;;19.80;;
18265;SDS011;9259;48.194;16.322;2023-12-28T09:33:31;53.43;;;19.67;;
18265;SDS011;9259;48.194;16.322;2023-12-28T09:36:02;47.80;;;18.00;;
18265;SDS011;9259;48.194;16.322;2023-12-28T09:38:31;46.07;;;17.00;;
18265;SDS011;9259;48.194;16.322;2023-12-28T09:40:58;70.30;;;24.70;;
18265;SDS011;9259;48.194;16.322;2023-12-28T09:43:40;53.60;;;19.83;;
18265;SDS011;9259;48.194;16.322;2023-12-28T09:46:15;72.40;;;26.27;;
18265;SDS011;9259;48.194;16.322;2023-12-28T09:48:43;79.70;;;27.60;;
18265;SDS011;9259;48.194;16.322;2023-12-28T09:51:13;47.20;;;17.83;;
18265;SDS011;9259;48.194;16.322;2023-12-28T09:53:42;49.70;;;19.23;;
18265;SDS011;9259;48.194;16.322;2023-12-28T09:56:11;49.37;;;18.00;;
18265;SDS011;9259;48.194;16.322;2023-12-28T09:58:40;41.30;;;16.53;;
18265;SDS011;9259;48.194;16.322;2023-12-28T10:01:09;47.60;;;16.23;;
18265;SDS011;9259;48.194;16.322;2023-12-28T10:03:37;48.00;;;17.77;;
18265;SDS011;9259;48.194;16.322;2023-12-28T10:06:05;46.77;;;16.60;;
18265;SDS011;9259;48.194;16.322;2023-12-28T10:08:34;48.83;;;18.13;;
18265;SDS011;9259;48.194;16.322;2023-12-28T10:11:02;51.10;;;17.30;;
18265;SDS011;9259;48.194;16.322;2023-12-28T10:13:32;49.70;;;18.50;;
18265;SDS011;9259;48.194;16.322;2023-12-28T10:16:00;49.17;;;18.73;;
18265;SDS011;9259;48.194;16.322;2023-12-28T10:18:29;51.37;;;20.83;;
18265;SDS011;9259;48.194;16.322;2023-12-28T10:20:56;45.20;;;17.47;;
18265;SDS011;9259;48.194;16.322;2023-12-28T10:23:24;53.77;;;19.23;;
18265;SDS011;9259;48.194;16.322;2023-12-28T10:25:55;47.57;;;17.30;;
18265;SDS011;9259;48.194;16.322;2023-12-28T10:28:24;49.47;;;17.77;;
18265;SDS011;9259;48.194;16.322;2023-12-28T10:30:54;43.90;;;17.03;;
18265;SDS011;9259;48.194;16.322;2023-12-28T10:33:22;42.80;;;16.23;;
18265;SDS011;9259;48.194;16.322;2023-12-28T10:35:51;45.50;;;16.77;;
18265;SDS011;9259;48.194;16.322;2023-12-28T10:38:19;48.23;;;17.97;;
18265;SDS011;9259;48.194;16.322;2023-12-28T10:40:47;44.63;;;15.57;;
18265;SDS011;9259;48.194;16.322;2023-12-28T10:43:17;43.63;;;15.73;;
18265;SDS011;9259;48.194;16.322;2023-12-28T10:45:50;48.10;;;17.13;;
18265;SDS011;9259;48.194;16.322;2023-12-28T10:48:20;48.43;;;17.60;;
18265;SDS011;9259;48.194;16.322;2023-12-28T10:50:57;44.93;;;16.73;;
18265;SDS011;9259;48.194;16.322;2023-12-28T10:53:28;50.30;;;17.90;;
18265;SDS011;9259;48.194;16.322;2023-12-28T10:56:10;51.57;;;18.37;;
18265;SDS011;9259;48.194;16.322;2023-12-28T10:58:50;48.77;;;18.73;;
18265;SDS011;9259;48.194;16.322;2023-12-28T11:01:30;54.47;;;18.57;;
18265;SDS011;9259;48.194;16.322;2023-12-28T11:04:01;49.53;;;18.40;;
18265;SDS011;9259;48.194;16.322;2023-12-28T11:06:35;47.80;;;17.10;;
18265;SDS011;9259;48.194;16.322;2023-12-28T11:09:04;45.70;;;15.97;;
18265;SDS011;9259;48.194;16.322;2023-12-28T11:11:35;48.30;;;17.90;;
18265;SDS011;9259;48.194;16.322;2023-12-28T11:14:05;45.27;;;17.13;;
18265;SDS011;9259;48.194;16.322;2023-12-28T11:16:35;48.33;;;17.43;;
18265;SDS011;9259;48.194;16.322;2023-12-28T11:19:05;43.77;;;16.33;;
18265;SDS011;9259;48.194;16.322;2023-12-28T11:21:35;42.23;;;16.10;;
18265;SDS011;9259;48.194;16.322;2023-12-28T11:24:03;57.27;;;19.47;;
18265;SDS011;9259;48.194;16.322;2023-12-28T11:26:33;47.60;;;17.50;;
18265;SDS011;9259;48.194;16.322;2023-12-28T11:29:01;46.17;;;17.37;;
18265;SDS011;9259;48.194;16.322;2023-12-28T11:31:33;47.90;;;18.60;;
18265;SDS011;9259;48.194;16.322;2023-12-28T11:34:01;60.23;;;22.20;;
18265;SDS011;9259;48.194;16.322;2023-12-28T11:36:33;46.67;;;17.27;;
18265;SDS011;9259;48.194;16.322;2023-12-28T11:39:04;42.70;;;16.20;;
18265;SDS011;9259;48.194;16.322;2023-12-28T11:41:35;46.87;;;16.00;;
18265;SDS011;9259;48.194;16.322;2023-12-28T11:44:03;44.87;;;16.20;;
18265;SDS011;9259;48.194;16.322;2023-12-28T11:46:35;41.50;;;15.63;;
18265;SDS011;9259;48.194;16.322;2023-12-28T11:49:03;47.33;;;17.33;;
18265;SDS011;9259;48.194;16.322;2023-12-28T11:51:32;47.30;;;17.27;;
18265;SDS011;9259;48.194;16.322;2023-12-28T11:54:03;41.80;;;16.30;;
18265;SDS011;9259;48.194;16.322;2023-12-28T11:56:31;41.37;;;15.83;;
18265;SDS011;9259;48.194;16.322;2023-12-28T11:58:59;45.27;;;17.47;;
18265;SDS011;9259;48.194;16.322;2023-12-28T12:01:27;45.40;;;17.73;;
18265;SDS011;9259;48.194;16.322;2023-12-28T12:03:56;46.93;;;17.17;;
18265;SDS011;9259;48.194;16.322;2023-12-28T12:06:24;46.73;;;18.30;;
18265;SDS011;9259;48.194;16.322;2023-12-28T12:08:52;41.40;;;16.73;;
18265;SDS011;9259;48.194;16.322;2023-12-28T12:11:20;41.50;;;15.83;;
18265;SDS011;9259;48.194;16.322;2023-12-28T12:13:50;41.43;;;16.00;;
18265;SDS011;9259;48.194;16.322;2023-12-28T12:16:18;39.53;;;16.43;;
18265;SDS011;9259;48.194;16.322;2023-12-28T12:18:46;42.70;;;16.03;;
18265;SDS011;9259;48.194;16.322;2023-12-28T12:21:15;39.90;;;16.53;;
18265;SDS011;9259;48.194;16.322;2023-12-28T12:23:44;47.60;;;16.60;;
18265;SDS011;9259;48.194;16.322;2023-12-28T12:26:12;42.43;;;17.13;;
18265;SDS011;9259;48.194;16.322;2023-12-28T12:28:40;42.93;;;16.57;;
18265;SDS011;9259;48.194;16.322;2023-12-28T12:31:07;40.10;;;17.03;;
18265;SDS011;9259;48.194;16.322;2023-12-28T12:33:36;46.97;;;16.60;;
18265;SDS011;9259;48.194;16.322;2023-12-28T12:36:04;40.90;;;16.60;;
18265;SDS011;9259;48.194;16.322;2023-12-28T12:38:35;46.30;;;17.47;;
18265;SDS011;9259;48.194;16.322;2023-12-28T12:41:03;43.17;;;17.07;;
18265;SDS011;9259;48.194;16.322;2023-12-28T12:43:31;43.10;;;17.37;;
18265;SDS011;9259;48.194;16.322;2023-12-28T12:46:00;40.83;;;16.23;;
18265;SDS011;9259;48.194;16.322;2023-12-28T12:48:28;43.70;;;17.23;;
18265;SDS011;9259;48.194;16.322;2023-12-28T12:50:55;39.50;;;16.90;;
18265;SDS011;9259;48.194;16.322;2023-12-28T12:53:23;45.00;;;18.03;;
18265;SDS011;9259;48.194;16.322;2023-12-28T12:55:55;39.67;;;15.60;;
18265;SDS011;9259;48.194;16.322;2023-12-28T12:58:23;41.73;;;16.77;;
18265;SDS011;9259;48.194;16.322;2023-12-28T13:00:51;39.27;;;15.63;;
18265;SDS011;9259;48.194;16.322;2023-12-28T13:03:19;39.83;;;16.40;;
18265;SDS011;9259;48.194;16.322;2023-12-28T13:05:47;37.37;;;14.47;;
18265;SDS011;9259;48.194;16.322;2023-12-28T13:08:15;37.27;;;14.60;;
18265;SDS011;9259;48.194;16.322;2023-12-28T13:10:43;33.93;;;14.97;;
18265;SDS011;9259;48.194;16.322;2023-12-28T13:13:12;35.03;;;14.93;;
18265;SDS011;9259;48.194;16.322;2023-12-28T13:15:40;39.17;;;15.87;;
18265;SDS011;9259;48.194;16.322;2023-12-28T13:18:07;35.07;;;14.70;;
18265;SDS011;9259;48.194;16.322;2023-12-28T13:20:35;34.33;;;14.03;;
18265;SDS011;9259;48.194;16.322;2023-12-28T13:23:03;31.67;;;13.60;;
18265;SDS011;9259;48.194;16.322;2023-12-28T13:25:31;34.53;;;14.83;;
18265;SDS011;9259;48.194;16.322;2023-12-28T13:27:59;36.40;;;15.27;;
18265;SDS011;9259;48.194;16.322;2023-12-28T13:30:28;37.00;;;14.00;;
18265;SDS011;9259;48.194;16.322;2023-12-28T13:32:56;37.13;;;14.70;;
18265;SDS011;9259;48.194;16.322;2023-12-28T13:35:24;39.87;;;15.53;;
18265;SDS011;9259;48.194;16.322;2023-12-28T13:37:51;37.63;;;15.30;;
18265;SDS011;9259;48.194;16.322;2023-12-28T13:40:19;39.73;;;15.03;;
18265;SDS011;9259;48.194;16.322;2023-12-28T13:42:47;37.40;;;15.43;;
18265;SDS011;9259;48.194;16.322;2023-12-28T13:45:15;39.90;;;15.63;;
18265;SDS011;9259;48.194;16.322;2023-12-28T13:58:32;40.10;;;15.10;;
18265;SDS011;9259;48.194;16.322;2023-12-28T14:01:00;39.17;;;16.33;;
18265;SDS011;9259;48.194;16.322;2023-12-28T14:03:28;38.63;;;15.60;;
18265;SDS011;9259;48.194;16.322;2023-12-28T14:05:56;42.63;;;17.13;;
18265;SDS011;9259;48.194;16.322;2023-12-28T14:08:24;43.27;;;17.60;;
18265;SDS011;9259;48.194;16.322;2023-12-28T14:10:52;42.77;;;16.57;;
18265;SDS011;9259;48.194;16.322;2023-12-28T14:13:20;47.03;;;17.60;;
18265;SDS011;9259;48.194;16.322;2023-12-28T14:15:49;44.17;;;17.30;;
18265;SDS011;9259;48.194;16.322;2023-12-28T14:18:17;48.43;;;18.83;;
18265;SDS011;9259;48.194;16.322;2023-12-28T14:20:44;43.50;;;17.93;;
18265;SDS011;9259;48.194;16.322;2023-12-28T14:23:13;51.90;;;19.20;;
18265;SDS011;9259;48.194;16.322;2023-12-28T14:25:42;50.63;;;19.70;;
18265;SDS011;9259;48.194;16.322;2023-12-28T14:28:11;56.63;;;19.27;;
18265;SDS011;9259;48.194;16.322;2023-12-28T14:30:39;50.03;;;19.50;;
18265;SDS011;9259;48.194;16.322;2023-12-28T14:33:10;48.60;;;19.20;;
18265;SDS011;9259;48.194;16.322;2023-12-28T14:35:38;49.07;;;20.37;;
18265;SDS011;9259;48.194;16.322;2023-12-28T14:38:07;48.47;;;19.73;;
18265;SDS011;9259;48.194;16.322;2023-12-28T14:40:35;50.70;;;19.70;;